Startpagina
METAR-TAF:

METAR-TAF

Vliegvelden :

Gwadar, Pakistan

breedte: 25-13-59N, lengte: 062-19-46E, hoogte: 29 m

Actueel weer

Dit bericht is 9 uur en het 34 minuten geleden gemaakt, om 01:29 UTC
Temperatuur
Druk

METAR: OPGD 150129ZZ NIL

Tijdstip: 16:03 (11:03 UTC)

Verwachting

Dit bericht is 7 uur en het 33 minuten geleden gemaakt, om 03:30 UTC
Verwachting geldig van 15 om 06 UTC tot 16 om 06 UTC
Wind 10 kt uit het zuidwesten
Zicht: 5000 m
Heiigheid
Van 15 om 1800 UTC
Wind 6 kt uit het zuidwesten
Zicht: 4000 m
Heiigheid
Tijdelijke
van 16 om 00 UTC tot 16 om 04 UTC
Wind 3 kt uit variabele richting
Zicht: 3000 m
rook

TAF: OPGD 150330Z 1506/1606 22010KT 5000 HZ NSC FM151800 22006KT 4000 HZ NSC TEMPO 1600/1604 VRB03KT 3000 FU NSC

Waarnemingen en weersverwachtingen van meer dan 4000 vliegvelden (METAR en TAF).

De beschikbare stations zijn de gele en rode punten op de kaart.

Ga met uw muis naar het station om de naam te zien.

Klik dan om waarnemingen en weersverwachtingen te zien.

kaart wijzigen: klik op de groene knoppen met een zwart kruis om in te zoomen, op de groene knop met een streepje om uit te zoomen of op de groene pijlen voor aangrenzende kaarten.


METAR-TAF: